Monte Grande, Argentina
Current Conditions -  °F | °C
As of 9:00 AM on Friday 31 Oct 2014 (Local Time) from SAEZ Reporting Station
Overcast Overcast  
Wind Chill: 64°   Ceiling: 10000
Heat Index: 64°   Visibility: 6mi
Dew Point: 57°   Wind: 7mph
Humidity: 77%   Direction: 110°ESE
Pressure: 29.97"   Gusts: NA
Location:  34.83°S, 58.47°W
Report Text: SAEZ 311200Z 11006KT 9999 SCT032 SCT040 OVC100 18/14 Q1015
Loading
Personal Weather Stations






























Interactive Weather Map New forecast layout! Learn more

10-Day Weather Forecast

Advertisements
Track Severe Weather on mobile